Time;durP1;ratioP1;P1;durP2;ratioP2;P2;SDS_P1;SDS_P2;PMS_P1;PMS_P2;Temp;Humidity;BMP_temperature;BMP_pressure;BME280_temperature;BME280_humidity;BME280_pressure;Samples;Min_cycle;Max_cycle;Signal;HPM_P1;HPM_P2
2023/04/06 00:00:33;;;;;;;7.82;5.22;;;;;;;;;;4948517;28;20374;-69
2023/04/06 00:02:59;;;;;;;5.85;4.57;;;3.70;99.90;;;;;;4974959;28;20082;-69
2023/04/06 00:05:26;;;;;;;6.68;4.45;;;;;;;;;;4954675;28;20070;-69
2023/04/06 00:07:54;;;;;;;8.73;4.90;;;;;;;;;;4952127;28;21031;-69
2023/04/06 00:10:20;;;;;;;8.57;5.45;;;;;;;;;;4948965;28;20047;-69
2023/04/06 00:12:46;;;;;;;7.60;4.80;;;;;;;;;;4980507;28;20046;-69
2023/04/06 00:15:12;;;;;;;7.72;4.88;;;;;;;;;;4973227;28;20062;-69
2023/04/06 00:17:38;;;;;;;9.73;5.20;;;;;;;;;;4977750;28;20105;-69
2023/04/06 00:20:04;;;;;;;7.10;5.50;;;;;;;;;;4963252;28;20120;-69
2023/04/06 00:22:29;;;;;;;8.02;5.40;;;3.70;99.90;;;;;;4961083;28;20043;-69
2023/04/06 00:24:55;;;;;;;7.88;5.30;;;;;;;;;;4950373;28;20057;-69
2023/04/06 00:27:21;;;;;;;7.32;4.88;;;;;;;;;;4973389;28;20046;-69
2023/04/06 00:29:47;;;;;;;6.63;4.82;;;;;;;;;;4971672;28;20122;-69
2023/04/06 00:32:13;;;;;;;9.20;5.15;;;;;;;;;;4975676;28;20547;-69
2023/04/06 00:34:39;;;;;;;6.30;4.95;;;;;;;;;;4958541;28;20125;-69
2023/04/06 00:37:05;;;;;;;7.95;4.25;;;;;;;;;;4983026;28;20097;-69
2023/04/06 00:39:31;;;;;;;7.00;5.10;;;;;;;;;;4952241;28;20046;-69
2023/04/06 00:41:57;;;;;;;8.73;4.90;;;;;;;;;;4958438;28;20046;-69
2023/04/06 00:44:24;;;;;;;6.50;5.07;;;;;;;;;;4959722;28;20039;-70
2023/04/06 00:46:50;;;;;;;10.00;5.18;;;3.50;99.90;;;;;;4984254;28;20038;-69
2023/04/06 00:49:16;;;;;;;6.80;5.07;;;;;;;;;;4953287;28;20049;-69
2023/04/06 00:51:42;;;;;;;6.93;5.22;;;;;;;;;;4959821;28;20100;-69
2023/04/06 00:54:09;;;;;;;7.30;4.93;;;;;;;;;;4963743;28;20079;-69
2023/04/06 00:56:35;;;;;;;9.32;5.03;;;3.30;99.90;;;;;;4986548;28;20046;-69
2023/04/06 00:59:01;;;;;;;8.68;5.32;;;;;;;;;;4953936;28;20125;-69
2023/04/06 01:01:28;;;;;;;7.60;5.40;;;;;;;;;;4971644;28;20681;-69
2023/04/06 01:03:55;;;;;;;8.73;5.03;;;;;;;;;;4955438;28;20051;-69
2023/04/06 01:06:21;;;;;;;6.55;4.60;;;;;;;;;;4959803;28;20074;-69
2023/04/06 01:08:47;;;;;;;11.73;5.47;;;;;;;;;;4959194;28;20126;-69
2023/04/06 01:11:13;;;;;;;12.80;5.60;;;;;;;;;;4965700;28;20186;-69
2023/04/06 01:13:39;;;;;;;6.72;4.97;;;;;;;;;;4956430;28;20058;-69
2023/04/06 01:16:05;;;;;;;6.82;5.20;;;;;;;;;;4965530;28;20428;-69
2023/04/06 01:18:31;;;;;;;6.88;4.32;;;;;;;;;;4977769;28;20038;-69
2023/04/06 01:20:59;;;;;;;8.82;6.20;;;;;;;;;;4980501;28;20039;-69
2023/04/06 01:23:25;;;;;;;7.20;4.53;;;;;;;;;;4976968;28;20100;-69
2023/04/06 01:25:51;;;;;;;7.32;4.93;;;;;;;;;;4981591;28;20057;-69
2023/04/06 01:28:17;;;;;;;8.65;5.45;;;;;;;;;;4978465;28;20034;-69
2023/04/06 01:30:43;;;;;;;7.13;5.15;;;;;;;;;;4952006;28;20069;-69
2023/04/06 01:33:09;;;;;;;6.95;5.38;;;;;;;;;;4966152;28;20780;-69
2023/04/06 01:35:35;;;;;;;7.80;5.47;;;;;;;;;;4969223;28;20408;-69
2023/04/06 01:38:01;;;;;;;9.10;5.55;;;;;;;;;;4960417;28;20494;-69
2023/04/06 01:40:27;;;;;;;6.38;4.78;;;;;;;;;;4954559;28;20050;-69
2023/04/06 01:42:53;;;;;;;8.80;5.20;;;;;;;;;;4981915;28;20058;-69
2023/04/06 01:45:19;;;;;;;9.30;5.65;;;;;;;;;;4973118;28;20143;-69
2023/04/06 01:47:45;;;;;;;8.05;5.45;;;;;;;;;;4963833;28;20042;-69
2023/04/06 01:50:11;;;;;;;12.40;5.80;;;;;;;;;;4959254;28;20047;-69
2023/04/06 01:52:37;;;;;;;9.00;5.40;;;;;;;;;;4963431;28;20622;-69
2023/04/06 01:55:04;;;;;;;11.00;5.30;;;;;;;;;;4954302;28;20124;-69
2023/04/06 01:57:30;;;;;;;10.55;5.18;;;;;;;;;;4949626;28;20047;-69
2023/04/06 01:59:56;;;;;;;10.90;5.68;;;;;;;;;;4957195;28;20057;-69
2023/04/06 02:02:22;;;;;;;7.72;5.55;;;;;;;;;;4952375;28;20051;-69
2023/04/06 02:04:48;;;;;;;7.20;5.40;;;;;;;;;;4952602;28;20050;-69
2023/04/06 02:07:14;;;;;;;10.48;5.80;;;;;;;;;;4956572;28;20050;-69
2023/04/06 02:09:40;;;;;;;8.50;5.68;;;;;;;;;;4951768;28;20042;-69
2023/04/06 02:12:06;;;;;;;6.93;5.15;;;;;;;;;;4958808;28;20041;-69
2023/04/06 02:14:32;;;;;;;7.85;5.32;;;;;;;;;;4960254;28;20130;-69
2023/04/06 02:16:58;;;;;;;8.18;5.78;;;;;;;;;;4960791;28;20133;-69
2023/04/06 02:19:24;;;;;;;8.77;5.97;;;;;;;;;;4948521;28;20053;-69
2023/04/06 02:21:50;;;;;;;7.65;5.45;;;;;;;;;;4963085;28;20049;-69
2023/04/06 02:24:16;;;;;;;9.38;6.38;;;;;;;;;;4981139;28;20043;-69
2023/04/06 02:26:41;;;;;;;10.23;5.95;;;2.40;99.90;;;;;;4971035;28;20046;-69
2023/04/06 02:29:07;;;;;;;9.65;5.43;;;;;;;;;;4963540;28;20050;-69
2023/04/06 02:31:33;;;;;;;9.25;6.22;;;;;;;;;;4949273;28;20420;-69
2023/04/06 02:33:59;;;;;;;8.02;6.00;;;;;;;;;;4953393;28;20046;-69
2023/04/06 02:36:25;;;;;;;9.25;6.03;;;;;;;;;;4954898;28;20054;-69
2023/04/06 02:38:51;;;;;;;8.52;5.30;;;;;;;;;;4945564;28;20572;-69
2023/04/06 02:41:18;;;;;;;8.38;5.53;;;;;;;;;;4951742;28;20042;-69
2023/04/06 02:43:44;;;;;;;9.50;6.07;;;;;;;;;;4958061;28;20046;-69
2023/04/06 02:46:10;;;;;;;7.57;5.57;;;;;;;;;;4959852;28;20050;-69
2023/04/06 02:48:36;;;;;;;9.93;5.53;;;;;;;;;;4973691;28;20428;-69
2023/04/06 02:51:03;;;;;;;9.77;5.93;;;;;;;;;;4974772;28;20404;-69
2023/04/06 02:53:29;;;;;;;7.78;6.05;;;;;;;;;;4962052;28;20046;-69
2023/04/06 02:55:55;;;;;;;6.88;5.65;;;;;;;;;;4958919;28;20078;-69
2023/04/06 02:58:21;;;;;;;9.23;5.82;;;;;;;;;;4961514;28;20050;-69
2023/04/06 03:00:47;;;;;;;9.35;6.15;;;;;;;;;;4951168;28;20465;-69
2023/04/06 03:03:13;;;;;;;8.82;5.68;;;;;;;;;;4963699;28;20046;-69
2023/04/06 03:05:39;;;;;;;11.10;6.45;;;;;;;;;;4958877;28;21026;-69
2023/04/06 03:08:05;;;;;;;10.88;6.13;;;;;;;;;;4974927;28;20043;-69
2023/04/06 03:10:31;;;;;;;7.95;5.72;;;;;;;;;;4964854;28;20035;-69
2023/04/06 03:12:57;;;;;;;10.52;5.63;;;;;;;;;;4968273;28;20073;-69
2023/04/06 03:15:23;;;;;;;8.68;6.03;;;;;;;;;;4974937;28;20051;-69
2023/04/06 03:17:49;;;;;;;8.98;6.10;;;;;;;;;;4956454;28;20050;-69
2023/04/06 03:20:15;;;;;;;8.88;6.53;;;;;;;;;;4948632;28;20081;-69
2023/04/06 03:22:41;;;;;;;9.35;6.18;;;;;;;;;;4951506;28;20110;-69
2023/04/06 03:25:07;;;;;;;8.95;6.30;;;;;;;;;;4969344;28;20451;-69
2023/04/06 03:27:33;;;;;;;9.70;6.18;;;2.20;99.90;;;;;;4968840;28;20126;-69
2023/04/06 03:29:59;;;;;;;8.32;6.43;;;;;;;;;;4961955;28;20133;-69
2023/04/06 03:32:25;;;;;;;12.93;6.72;;;;;;;;;;4962137;28;20054;-69
2023/04/06 03:34:51;;;;;;;9.40;6.40;;;;;;;;;;4960465;28;20057;-69
2023/04/06 03:37:17;;;;;;;13.02;6.35;;;;;;;;;;4958735;28;20050;-69
2023/04/06 03:39:42;;;;;;;11.27;6.68;;;;;;;;;;4955736;28;20042;-69
2023/04/06 03:42:08;;;;;;;9.65;6.85;;;;;;;;;;4972518;28;20039;-69
2023/04/06 03:44:34;;;;;;;9.00;6.57;;;;;;;;;;4955521;28;20054;-69
2023/04/06 03:47:02;;;;;;;11.35;6.32;;;;;;;;;;4967041;28;20043;-69
2023/04/06 03:49:28;;;;;;;10.23;6.75;;;;;;;;;;4967290;28;20117;-69
2023/04/06 03:51:54;;;;;;;10.63;7.25;;;;;;;;;;4949300;28;20153;-69
2023/04/06 03:54:20;;;;;;;12.43;7.10;;;;;;;;;;4969826;28;20125;-69
2023/04/06 03:56:46;;;;;;;9.85;7.25;;;;;;;;;;4951428;28;20129;-69
2023/04/06 03:59:12;;;;;;;10.18;7.10;;;;;;;;;;4948810;28;20503;-69
2023/04/06 04:01:39;;;;;;;9.00;6.55;;;;;;;;;;4951721;28;20133;-69
2023/04/06 04:04:05;;;;;;;10.35;7.47;;;;;;;;;;4952905;28;20054;-69
2023/04/06 04:06:31;;;;;;;12.70;7.85;;;;;;;;;;4982035;28;20043;-69
2023/04/06 04:08:57;;;;;;;11.23;7.45;;;;;;;;;;4968003;28;20041;-69
2023/04/06 04:11:23;;;;;;;13.25;7.40;;;;;;;;;;4954582;28;20042;-69
2023/04/06 04:13:49;;;;;;;12.05;8.10;;;;;;;;;;4959327;28;20053;-69
2023/04/06 04:16:15;;;;;;;12.10;7.55;;;;;;;;;;4955134;28;20098;-69
2023/04/06 04:18:43;;;;;;;11.10;7.45;;;;;;;;;;4963055;28;20132;-69
2023/04/06 04:21:09;;;;;;;11.80;7.75;;;;;;;;;;4965011;28;20164;-69
2023/04/06 04:23:35;;;;;;;13.13;8.00;;;;;;;;;;4976276;28;20055;-69
2023/04/06 04:26:01;;;;;;;13.25;8.05;;;;;;;;;;4980837;28;20178;-69
2023/04/06 04:28:27;;;;;;;11.30;8.30;;;;;;;;;;4968841;28;20049;-69
2023/04/06 04:30:53;;;;;;;13.77;8.18;;;;;;;;;;4983321;28;20415;-69
2023/04/06 04:33:19;;;;;;;12.85;8.18;;;;;;;;;;4978294;28;20081;-69
2023/04/06 04:35:45;;;;;;;12.32;7.80;;;;;;;;;;4977141;28;20080;-69
2023/04/06 04:38:11;;;;;;;9.25;6.90;;;;;;;;;;4970164;28;20058;-69
2023/04/06 04:40:37;;;;;;;11.60;7.28;;;;;;;;;;4951076;28;20473;-69
2023/04/06 04:43:03;;;;;;;14.23;8.15;;;;;;;;;;4970347;28;20043;-69
2023/04/06 04:45:29;;;;;;;13.07;8.60;;;;;;;;;;4981171;28;20497;-69
2023/04/06 04:47:55;;;;;;;13.98;7.63;;;;;;;;;;4956488;28;20057;-69
2023/04/06 04:50:21;;;;;;;11.75;7.65;;;;;;;;;;4972493;28;20153;-69
2023/04/06 04:52:47;;;;;;;11.52;7.35;;;;;;;;;;4981233;28;20137;-69
2023/04/06 04:55:14;;;;;;;11.43;7.68;;;;;;;;;;4980026;28;20144;-69
2023/04/06 04:57:40;;;;;;;12.48;8.18;;;;;;;;;;4974616;28;20039;-69
2023/04/06 05:00:06;;;;;;;11.60;7.03;;;1.90;99.90;;;;;;4959240;28;20043;-69
2023/04/06 05:02:32;;;;;;;11.00;7.43;;;;;;;;;;4952976;28;20765;-69
2023/04/06 05:04:58;;;;;;;14.90;7.45;;;;;;;;;;4969880;28;20130;-69
2023/04/06 05:07:24;;;;;;;10.68;7.10;;;;;;;;;;4978715;28;20488;-69
2023/04/06 05:09:50;;;;;;;10.25;6.75;;;;;;;;;;4981879;28;20846;-69
2023/04/06 05:12:16;;;;;;;12.38;6.97;;;;;;;;;;4959858;28;20518;-69
2023/04/06 05:14:42;;;;;;;15.68;7.68;;;;;;;;;;4958751;28;20065;-69
2023/04/06 05:17:08;;;;;;;9.30;7.15;;;;;;;;;;4957881;28;20055;-69
2023/04/06 05:19:34;;;;;;;12.25;7.78;;;;;;;;;;4983728;28;20347;-69
2023/04/06 05:22:00;;;;;;;12.48;7.53;;;;;;;;;;4964467;28;20082;-69
2023/04/06 05:24:26;;;;;;;12.88;7.53;;;;;;;;;;4980006;28;20454;-69
2023/04/06 05:26:52;;;;;;;12.98;7.80;;;;;;;;;;4983012;28;20046;-69
2023/04/06 05:29:20;;;;;;;9.50;6.60;;;;;;;;;;4972787;28;20071;-69
2023/04/06 05:31:46;;;;;;;10.65;6.97;;;;;;;;;;4974364;28;20047;-69
2023/04/06 05:34:12;;;;;;;16.17;7.90;;;;;;;;;;4981619;28;20044;-69
2023/04/06 05:36:40;;;;;;;12.65;6.88;;;;;;;;;;4980330;28;20105;-69
2023/04/06 05:39:06;;;;;;;9.35;7.22;;;;;;;;;;4974671;28;20149;-69
2023/04/06 05:41:32;;;;;;;12.65;7.07;;;;;;;;;;4950294;28;20120;-69
2023/04/06 05:43:58;;;;;;;10.43;7.35;;;;;;;;;;4975960;28;20161;-69
2023/04/06 05:46:24;;;;;;;12.70;7.10;;;;;;;;;;4978424;28;20480;-69
2023/04/06 05:48:50;;;;;;;13.73;8.80;;;;;;;;;;4963948;28;20042;-69
2023/04/06 05:51:16;;;;;;;16.40;7.60;;;;;;;;;;4980508;28;20074;-69
2023/04/06 05:53:42;;;;;;;11.57;7.22;;;;;;;;;;4965855;28;20046;-69
2023/04/06 05:56:08;;;;;;;11.23;7.10;;;;;;;;;;4972468;28;20074;-69
2023/04/06 05:58:34;;;;;;;14.18;7.68;;;;;;;;;;4983592;28;20543;-69
2023/04/06 06:01:01;;;;;;;10.95;6.82;;;;;;;;;;4979401;28;20041;-69
2023/04/06 06:03:27;;;;;;;12.45;7.32;;;;;;;;;;4968166;28;20054;-69
2023/04/06 06:05:53;;;;;;;9.00;7.43;;;;;;;;;;4962273;28;20051;-69
2023/04/06 06:08:19;;;;;;;16.05;7.75;;;;;;;;;;4965014;28;20052;-67
2023/04/06 06:10:45;;;;;;;10.10;7.32;;;;;;;;;;4979388;28;20117;-68
2023/04/06 06:13:11;;;;;;;11.93;7.15;;;;;;;;;;4979839;28;20134;-67
2023/04/06 06:15:37;;;;;;;10.40;7.57;;;;;;;;;;4983089;28;20058;-68
2023/04/06 06:18:02;;;;;;;11.13;7.10;;;4.70;99.90;;;;;;4958837;28;20106;-67
2023/04/06 06:20:28;;;;;;;11.80;7.50;;;;;;;;;;4966264;28;20074;-67
2023/04/06 06:22:54;;;;;;;12.77;7.95;;;;;;;;;;4975032;28;20055;-69
2023/04/06 06:25:21;;;;;;;13.43;7.75;;;;;;;;;;4967553;28;20035;-68
2023/04/06 06:27:47;;;;;;;11.98;7.07;;;;;;;;;;4975998;28;20507;-68
2023/04/06 06:30:13;;;;;;;8.82;6.72;;;;;;;;;;4969267;28;20039;-70
2023/04/06 06:32:39;;;;;;;12.75;7.00;;;;;;;;;;4970692;28;20054;-67
2023/04/06 06:35:05;;;;;;;13.02;7.50;;;7.50;99.90;;;;;;4959013;28;20125;-69
2023/04/06 06:37:31;;;;;;;11.43;6.45;;;;;;;;;;4963587;28;20408;-68
2023/04/06 06:39:57;;;;;;;8.70;6.90;;;;;;;;;;4950908;28;20055;-67
2023/04/06 06:42:23;;;;;;;11.57;7.88;;;8.60;99.90;;;;;;4971978;28;20066;-68
2023/04/06 06:44:49;;;;;;;11.57;7.18;;;;;;;;;;4986425;28;20493;-69
2023/04/06 06:47:15;;;;;;;12.25;7.43;;;;;;;;;;4976749;28;20405;-69
2023/04/06 06:49:41;;;;;;;10.27;7.85;;;;;;;;;;4970247;28;20489;-69
2023/04/06 06:52:07;;;;;;;10.27;7.32;;;;;;;;;;4954318;28;20054;-69
2023/04/06 06:54:33;;;;;;;11.07;7.75;;;;;;;;;;4977088;28;20053;-69
2023/04/06 06:57:00;;;;;;;10.52;6.93;;;8.20;99.90;;;;;;4978779;28;20499;-69
2023/04/06 06:59:26;;;;;;;14.98;7.93;;;;;;;;;;4954664;28;20050;-69
2023/04/06 07:01:52;;;;;;;13.00;8.18;;;;;;;;;;4949377;28;20046;-69
2023/04/06 07:04:18;;;;;;;12.18;7.75;;;;;;;;;;4977637;28;20054;-69
2023/04/06 07:06:43;;;;;;;11.50;8.30;;;7.70;99.90;;;;;;4959095;28;20038;-69
2023/04/06 07:09:09;;;;;;;10.80;7.50;;;;;;;;;;4949655;28;20077;-69
2023/04/06 07:11:35;;;;;;;14.50;8.13;;;;;;;;;;4973597;28;20544;-69
2023/04/06 07:14:01;;;;;;;14.00;7.68;;;8.40;99.90;;;;;;4951385;28;20129;-69
2023/04/06 07:16:27;;;;;;;12.65;8.25;;;;;;;;;;4972919;28;20055;-69
2023/04/06 07:18:53;;;;;;;11.52;7.85;;;;;;;;;;4960287;28;20049;-71
2023/04/06 07:21:18;;;;;;;11.02;7.57;;;9.90;99.90;;;;;;4958784;28;20408;-69
2023/04/06 07:23:44;;;;;;;11.75;7.47;;;10.10;99.90;;;;;;4961708;28;20042;-70
2023/04/06 07:26:10;;;;;;;11.85;8.18;;;;;;;;;;4957439;28;20053;-70
2023/04/06 07:28:36;;;;;;;11.68;7.50;;;10.20;99.90;;;;;;4974602;28;20365;-70
2023/04/06 07:31:01;;;;;;;12.82;8.02;;;10.40;99.90;;;;;;4957332;28;20035;-70
2023/04/06 07:33:29;;;;;;;12.57;8.00;;;;;;;;;;4955730;28;20051;-70
2023/04/06 07:35:56;;;;;;;12.48;8.05;;;;;;;;;;4953667;28;20742;-70
2023/04/06 07:38:22;;;;;;;12.13;9.00;;;10.70;99.90;;;;;;4952926;28;20055;-70
2023/04/06 07:40:48;;;;;;;10.95;8.45;;;;;;;;;;4937927;28;20050;-70
2023/04/06 07:43:14;;;;;;;14.88;8.15;;;;;;;;;;4968673;28;20137;-70
2023/04/06 07:45:39;;;;;;;16.80;8.30;;;11.40;99.90;;;;;;4979769;28;20202;-70
2023/04/06 07:48:05;;;;;;;12.82;8.60;;;11.60;99.90;;;;;;4979116;28;20646;-69
2023/04/06 07:50:31;;;;;;;14.65;8.00;;;;;;;;;;4970843;28;20035;-69
2023/04/06 07:52:57;;;;;;;14.13;7.93;;;10.40;99.90;;;;;;4965297;28;20050;-70
2023/04/06 07:55:23;;;;;;;11.05;8.25;;;;;;;;;;4979325;28;20128;-70
2023/04/06 07:57:50;;;;;;;13.77;8.70;;;;;;;;;;4974064;28;20050;-70
2023/04/06 08:00:16;;;;;;;11.25;7.82;;;;;;;;;;4962027;28;20054;-70
2023/04/06 08:02:42;;;;;;;12.60;8.32;;;9.30;99.90;;;;;;4982906;28;20604;-70
2023/04/06 08:05:08;;;;;;;12.98;8.27;;;;;;;;;;4968163;28;20141;-69
2023/04/06 08:07:35;;;;;;;13.23;9.20;;;;;;;;;;4981788;28;20049;-70
2023/04/06 08:10:01;;;;;;;14.05;8.88;;;;;;;;;;4966723;28;20054;-70
2023/04/06 08:12:27;;;;;;;11.23;8.07;;;;;;;;;;4962706;28;20054;-70
2023/04/06 08:14:53;;;;;;;10.80;7.05;;;;;;;;;;4967804;28;20077;-70
2023/04/06 08:17:19;;;;;;;13.00;8.02;;;;;;;;;;4962066;28;20133;-70
2023/04/06 08:19:45;;;;;;;10.77;7.32;;;;;;;;;;4972602;28;20046;-70
2023/04/06 08:22:11;;;;;;;11.65;7.72;;;;;;;;;;4953950;28;20475;-70
2023/04/06 08:24:37;;;;;;;15.68;9.02;;;9.40;99.90;;;;;;4977718;28;20081;-70
2023/04/06 08:27:03;;;;;;;11.52;8.07;;;9.50;99.90;;;;;;4966992;28;20073;-69
2023/04/06 08:29:29;;;;;;;15.30;8.80;;;;;;;;;;4974925;28;20073;-70
2023/04/06 08:31:54;;;;;;;15.15;9.00;;;9.70;99.90;;;;;;4981673;28;20062;-69
2023/04/06 08:34:21;;;;;;;11.90;7.47;;;;;;;;;;4977082;28;20042;-70
2023/04/06 08:36:47;;;;;;;18.23;9.00;;;;;;;;;;4960613;28;20134;-70
2023/04/06 08:39:12;;;;;;;13.23;8.63;;;9.70;99.90;;;;;;4955919;28;20050;-70
2023/04/06 08:41:41;;;;;;;19.52;9.65;;;9.80;99.90;;;;;;4965119;28;20049;-70
2023/04/06 08:44:07;;;;;;;14.07;8.07;;;;;;;;;;4979080;28;20077;-70
2023/04/06 08:46:33;;;;;;;15.57;9.10;;;10.20;99.90;;;;;;4959259;28;20039;-70
2023/04/06 08:48:59;;;;;;;20.77;9.15;;;;;;;;;;4971617;28;20046;-70
2023/04/06 08:51:26;;;;;;;16.63;9.75;;;10.40;99.90;;;;;;4964479;28;20100;-70
2023/04/06 08:53:54;;;;;;;16.90;9.95;;;;;;;;;;4966223;28;20047;-70
2023/04/06 08:56:21;;;;;;;17.80;10.20;;;10.60;99.90;;;;;;4976460;28;20105;-70
2023/04/06 08:58:48;;;;;;;19.52;9.50;;;;;;;;;;4959455;28;20046;-70
2023/04/06 09:01:15;;;;;;;17.80;10.30;;;;;;;;;;4966062;28;20102;-70
2023/04/06 09:03:41;;;;;;;18.70;11.20;;;10.70;99.90;;;;;;4956528;28;20051;-69
2023/04/06 09:06:08;;;;;;;19.75;11.48;;;10.70;99.90;;;;;;4964978;28;20045;-69
2023/04/06 09:08:35;;;;;;;16.17;10.93;;;;;;;;;;4975906;28;20146;-70
2023/04/06 09:11:04;;;;;;;19.23;11.00;;;10.90;99.90;;;;;;4955283;28;20524;-69
2023/04/06 09:13:30;;;;;;;18.73;10.27;;;;;;;;;;4960122;28;20167;-69
2023/04/06 09:16:00;;;;;;;19.98;11.35;;;;;;;;;;4975233;28;20058;-69
2023/04/06 09:18:30;;;;;;;20.60;11.93;;;;;;;;;;4957500;28;20121;-70
2023/04/06 09:21:03;;;;;;;22.13;11.77;;;;;;;;;;4984833;28;20055;-70
2023/04/06 09:23:29;;;;;;;20.27;12.43;;;11.00;99.90;;;;;;4963770;28;20112;-69
2023/04/06 09:26:13;;;;;;;21.10;11.15;;;11.20;99.90;;;;;;4957848;28;20145;-69
2023/04/06 09:28:52;;;;;;;17.98;12.65;;;11.20;99.90;;;;;;4972072;28;20110;-69
2023/04/06 09:31:26;;;;;;;19.60;11.85;;;;;;;;;;4954631;28;20400;-69
2023/04/06 09:33:52;;;;;;;20.88;13.35;;;11.50;99.90;;;;;;4955699;28;20073;-69
2023/04/06 09:36:18;;;;;;;21.73;13.10;;;;;;;;;;4960830;28;20050;-69
2023/04/06 09:39:01;;;;;;;24.98;12.80;;;;;;;;;;4971231;28;21437;-69
2023/04/06 09:41:31;;;;;;;23.23;12.93;;;;;;;;;;4970016;28;20114;-69
2023/04/06 09:44:07;;;;;;;24.00;13.43;;;11.90;99.90;;;;;;4966297;28;20082;-69
2023/04/06 09:46:34;;;;;;;26.95;13.93;;;;;;;;;;4958222;28;20039;-69
2023/04/06 09:49:01;;;;;;;21.42;13.10;;;;;;;;;;4957912;28;20117;-69
2023/04/06 09:51:30;;;;;;;24.48;14.02;;;12.30;99.90;;;;;;4955955;28;20129;-69
2023/04/06 09:54:02;;;;;;;22.92;14.02;;;12.40;99.90;;;;;;4968468;28;20043;-69
2023/04/06 09:56:33;;;;;;;21.30;13.82;;;12.20;99.90;;;;;;4971059;28;20047;-69
2023/04/06 09:59:04;;;;;;;21.90;13.35;;;12.10;99.90;;;;;;4967031;28;20097;-69
2023/04/06 10:01:33;;;;;;;22.48;14.77;;;12.40;99.90;;;;;;4955742;28;20530;-69
2023/04/06 10:04:05;;;;;;;23.80;15.15;;;;;;;;;;4952391;28;20401;-69
2023/04/06 10:06:35;;;;;;;22.08;12.98;;;12.30;99.90;;;;;;4966086;28;20122;-69
2023/04/06 10:09:02;;;;;;;23.52;14.95;;;12.40;99.90;;;;;;4953133;28;20066;-69
2023/04/06 10:11:28;;;;;;;26.35;16.50;;;12.30;99.90;;;;;;4972794;28;20399;-69
2023/04/06 10:13:55;;;;;;;25.50;15.50;;;12.40;99.90;;;;;;4984830;28;20062;-69
2023/04/06 10:16:22;;;;;;;20.23;13.85;;;12.00;99.90;;;;;;4976471;28;20059;-69
2023/04/06 10:18:51;;;;;;;23.52;14.30;;;;;;;;;;4972641;28;20045;-69
2023/04/06 10:21:21;;;;;;;25.05;14.45;;;12.20;99.90;;;;;;4969438;28;20039;-70
2023/04/06 10:23:57;;;;;;;24.95;14.68;;;;;;;;;;4959408;28;20624;-69
2023/04/06 10:26:24;;;;;;;21.73;14.68;;;;;;;;;;4955226;28;20133;-69
2023/04/06 10:28:50;;;;;;;24.30;14.23;;;12.10;99.90;;;;;;4974195;28;20493;-69
2023/04/06 10:31:24;;;;;;;24.33;14.98;;;;;;;;;;4957218;28;20080;-69
2023/04/06 10:33:57;;;;;;;28.33;16.23;;;;;;;;;;4960083;28;20057;-69
2023/04/06 10:36:25;;;;;;;26.25;15.18;;;12.30;99.90;;;;;;4955774;28;20053;-70
2023/04/06 10:38:56;;;;;;;25.20;14.43;;;;;;;;;;4979841;28;20118;-69
2023/04/06 10:41:22;;;;;;;25.23;13.65;;;;;;;;;;4962966;28;20057;-69
2023/04/06 10:43:55;;;;;;;21.67;13.55;;;;;;;;;;4981478;28;20040;-69
2023/04/06 10:46:25;;;;;;;23.38;15.52;;;;;;;;;;4957170;28;20070;-69
2023/04/06 10:48:51;;;;;;;22.20;14.93;;;;;;;;;;4956669;28;20065;-69
2023/04/06 10:51:18;;;;;;;24.15;15.20;;;12.20;99.90;;;;;;4972413;28;20065;-70
2023/04/06 10:53:48;;;;;;;22.23;14.43;;;;;;;;;;4980272;28;20588;-69
2023/04/06 10:56:21;;;;;;;20.17;12.70;;;12.10;99.90;;;;;;4961555;28;20832;-70
2023/04/06 10:58:47;;;;;;;23.92;15.55;;;;;;;;;;4957586;28;21675;-70
2023/04/06 11:01:18;;;;;;;18.92;12.88;;;12.10;99.90;;;;;;4969753;28;20061;-69
2023/04/06 11:03:49;;;;;;;22.73;14.68;;;12.20;99.90;;;;;;4966496;28;20662;-69
2023/04/06 11:06:33;;;;;;;24.30;13.75;;;;;;;;;;4955098;28;20050;-69
2023/04/06 11:08:59;;;;;;;25.02;14.52;;;12.20;99.90;;;;;;4953924;28;20097;-69
2023/04/06 11:11:26;;;;;;;26.10;15.15;;;12.10;99.90;;;;;;4961719;28;20054;-69
2023/04/06 11:13:52;;;;;;;26.40;14.95;;;;;;;;;;4971556;28;20034;-69
2023/04/06 11:16:25;;;;;;;27.48;15.20;;;;;;;;;;4956833;28;20117;-69
2023/04/06 11:19:01;;;;;;;26.00;14.63;;;12.20;99.90;;;;;;4958362;28;20073;-70
2023/04/06 11:21:43;;;;;;;36.25;16.08;;;12.20;99.90;;;;;;4981479;28;20042;-69
2023/04/06 11:24:20;;;;;;;22.50;13.93;;;12.20;99.90;;;;;;4965688;28;20528;-70
2023/04/06 11:26:55;;;;;;;27.30;17.08;;;12.20;99.90;;;;;;4982503;28;20038;-71
2023/04/06 11:29:31;;;;;;;25.95;14.77;;;12.40;99.90;;;;;;4959191;28;20097;-71
2023/04/06 11:32:04;;;;;;;28.05;16.42;;;;;;;;;;4956813;28;20046;-69
2023/04/06 11:34:32;;;;;;;22.92;14.75;;;12.40;99.90;;;;;;4956162;28;20046;-69
2023/04/06 11:37:00;;;;;;;23.17;14.60;;;;;;;;;;4956475;28;20444;-71
2023/04/06 11:39:27;;;;;;;23.92;16.15;;;;;;;;;;4952279;28;20831;-72
2023/04/06 11:41:54;;;;;;;24.40;15.18;;;;;;;;;;4968794;28;20049;-69
2023/04/06 11:44:35;;;;;;;26.13;16.15;;;12.60;99.90;;;;;;4963850;28;20047;-70
2023/04/06 11:47:03;;;;;;;22.70;13.68;;;12.60;99.90;;;;;;4973247;28;20038;-70
2023/04/06 11:49:30;;;;;;;24.25;15.02;;;12.60;99.90;;;;;;4963675;28;20042;-70
2023/04/06 11:51:56;;;;;;;25.08;14.75;;;;;;;;;;4958322;28;20052;-70
2023/04/06 11:54:40;;;;;;;24.25;15.55;;;12.50;99.90;;;;;;4974974;28;20043;-70
2023/04/06 11:57:06;;;;;;;29.15;15.02;;;;;;;;;;4948221;28;20046;-70
2023/04/06 11:59:33;;;;;;;25.20;15.57;;;;;;;;;;4949805;28;20050;-71
2023/04/06 12:01:59;;;;;;;27.05;16.33;;;;;;;;;;4955567;28;20464;-71
2023/04/06 12:04:24;;;;;;;27.75;15.32;;;12.60;99.90;;;;;;4956418;28;20104;-71
2023/04/06 12:06:51;;;;;;;25.20;16.08;;;;;;;;;;4958883;28;20424;-71
2023/04/06 12:09:17;;;;;;;40.05;16.33;;;;;;;;;;4960498;28;20088;-71
2023/04/06 12:11:43;;;;;;;25.73;14.65;;;12.50;99.90;;;;;;4978903;28;20045;-70
2023/04/06 12:14:09;;;;;;;23.38;14.65;;;12.60;99.90;;;;;;4977800;28;20038;-71
2023/04/06 12:16:35;;;;;;;24.48;15.80;;;;;;;;;;4957478;28;20070;-71
2023/04/06 12:19:01;;;;;;;26.95;15.05;;;;;;;;;;4952311;28;20134;-71
2023/04/06 12:21:28;;;;;;;23.58;14.52;;;;;;;;;;4956102;28;20074;-71
2023/04/06 12:23:54;;;;;;;22.08;13.00;;;12.50;99.90;;;;;;4976489;28;20050;-71
2023/04/06 12:26:20;;;;;;;24.58;16.10;;;;;;;;;;4951972;28;20053;-70
2023/04/06 12:28:46;;;;;;;29.00;15.57;;;;;;;;;;4972564;28;20046;-71
2023/04/06 12:31:16;;;;;;;25.33;14.55;;;12.30;99.90;;;;;;4979794;28;20408;-71
2023/04/06 12:33:42;;;;;;;23.88;14.15;;;;;;;;;;4959105;28;20054;-71
2023/04/06 12:36:13;;;;;;;22.30;14.25;;;12.40;99.90;;;;;;4956016;28;20051;-71
2023/04/06 12:38:40;;;;;;;20.48;11.68;;;;;;;;;;4960217;28;20062;-71
2023/04/06 12:41:06;;;;;;;23.90;13.13;;;;;;;;;;4972979;28;20185;-70
2023/04/06 12:43:32;;;;;;;27.35;14.43;;;;;;;;;;4962497;28;20118;-71
2023/04/06 12:45:59;;;;;;;23.02;12.20;;;;;;;;;;4962112;28;20078;-70
2023/04/06 12:48:27;;;;;;;20.38;11.90;;;;;;;;;;4955197;28;20096;-71
2023/04/06 12:51:01;;;;;;;13.35;7.45;;;12.20;99.90;;;;;;4969856;28;20108;-71
2023/04/06 12:53:27;;;;;;;17.38;9.77;;;;;;;;;;4975516;28;20050;-70
2023/04/06 12:55:55;;;;;;;16.35;10.25;;;12.10;99.90;;;;;;4955007;28;20042;-69
2023/04/06 12:58:21;;;;;;;13.60;8.73;;;;;;;;;;4964590;28;20056;-70
2023/04/06 13:00:48;;;;;;;15.90;10.20;;;11.80;99.90;;;;;;4958041;28;20046;-71
2023/04/06 13:03:14;;;;;;;19.73;9.95;;;;;;;;;;4961484;28;20048;-71
2023/04/06 13:05:52;;;;;;;16.08;10.85;;;11.90;99.90;;;;;;4960113;28;20046;-72
2023/04/06 13:08:20;;;;;;;16.25;9.50;;;;;;;;;;4972448;28;20043;-70
2023/04/06 13:10:50;;;;;;;14.32;9.73;;;12.00;99.90;;;;;;4952710;28;20799;-71
2023/04/06 13:13:17;;;;;;;16.73;11.10;;;;;;;;;;4968136;28;20093;-71
2023/04/06 13:15:43;;;;;;;16.67;10.65;;;;;;;;;;4951795;28;20070;-71
2023/04/06 13:18:09;;;;;;;14.10;9.10;;;12.10;99.90;;;;;;4951395;28;20847;-71
2023/04/06 13:20:35;;;;;;;13.35;7.78;;;11.90;99.90;;;;;;4977815;28;20053;-71
2023/04/06 13:23:01;;;;;;;10.38;6.10;;;;;;;;;;4962065;28;20042;-71
2023/04/06 13:25:28;;;;;;;14.63;7.47;;;;;;;;;;4958829;28;20507;-70
2023/04/06 13:27:54;;;;;;;14.52;7.93;;;;;;;;;;4961094;28;20046;-70
2023/04/06 13:30:20;;;;;;;9.02;5.97;;;;;;;;;;4976183;28;20073;-71
2023/04/06 13:32:46;;;;;;;8.27;5.88;;;11.70;99.90;;;;;;4974377;28;20510;-70
2023/04/06 13:35:11;;;;;;;12.45;6.00;;;;;;;;;;4975564;28;20038;-71
2023/04/06 13:37:38;;;;;;;9.40;6.13;;;;;;;;;;4960387;28;20051;-71
2023/04/06 13:40:04;;;;;;;10.23;6.75;;;;;;;;;;4971411;28;20042;-71
2023/04/06 13:42:31;;;;;;;13.05;7.22;;;11.70;99.90;;;;;;4968340;28;20050;-71
2023/04/06 13:44:57;;;;;;;9.07;6.47;;;;;;;;;;4979208;28;20050;-70
2023/04/06 13:47:23;;;;;;;12.75;7.50;;;;;;;;;;4971274;28;20046;-71
2023/04/06 13:49:51;;;;;;;12.15;7.78;;;;;;;;;;4975430;28;20047;-71
2023/04/06 13:52:18;;;;;;;10.95;7.80;;;;;;;;;;4960027;28;20050;-71
2023/04/06 13:54:44;;;;;;;11.40;8.07;;;;;;;;;;4980603;28;20880;-71
2023/04/06 13:57:10;;;;;;;14.13;8.13;;;;;;;;;;4972913;28;20055;-71
2023/04/06 13:59:36;;;;;;;13.93;8.20;;;;;;;;;;4947887;28;20042;-71